createdAt,value
2023-04-19T00:01:01.710Z,8.29
2023-04-19T00:06:08.371Z,8.43
2023-04-19T00:11:11.781Z,8.56
2023-04-19T00:16:14.946Z,8.73
2023-04-19T00:21:19.317Z,8.88
2023-04-19T00:26:22.461Z,9.01
2023-04-19T00:31:28.416Z,9.05
2023-04-19T00:36:32.913Z,9.18
2023-04-19T00:41:36.009Z,9.25
2023-04-19T00:46:41.211Z,9.27
2023-04-19T00:51:46.056Z,9.34
2023-04-19T00:56:49.563Z,9.40
2023-04-19T01:01:53.288Z,9.45
2023-04-19T01:06:58.510Z,9.51
2023-04-19T01:12:03.579Z,9.59
2023-04-19T01:17:07.578Z,9.64
2023-04-19T01:22:20.505Z,9.69
2023-04-19T01:27:23.909Z,9.76
2023-04-19T01:32:27.412Z,9.74
2023-04-19T01:37:36.446Z,9.82
2023-04-19T01:42:39.496Z,9.89
2023-04-19T01:47:42.778Z,9.89
2023-04-19T01:52:47.174Z,9.91
2023-04-19T01:57:50.221Z,9.91
2023-04-19T02:02:53.803Z,9.95
2023-04-19T02:08:01.407Z,9.97
2023-04-19T02:13:06.913Z,9.98
2023-04-19T02:18:10.077Z,10.01
2023-04-19T02:23:15.007Z,9.99
2023-04-19T02:28:18.244Z,9.96
2023-04-19T02:33:23.235Z,9.97
2023-04-19T02:38:27.725Z,9.98
2023-04-19T02:43:30.692Z,9.98
2023-04-19T02:48:33.825Z,9.98
2023-04-19T02:53:38.201Z,9.82
2023-04-19T02:58:41.194Z,9.87
2023-04-19T03:03:44.565Z,9.82
2023-04-19T03:08:51.475Z,9.80
2023-04-19T03:13:55.302Z,9.66
2023-04-19T03:18:58.385Z,9.71
2023-04-19T03:24:06.830Z,9.62
2023-04-19T03:29:10.987Z,9.58
2023-04-19T03:34:22.257Z,9.65
2023-04-19T03:39:28.289Z,9.65
2023-04-19T03:44:36.853Z,9.64
2023-04-19T03:49:42.023Z,9.65
2023-04-19T03:54:46.858Z,9.62
2023-04-19T04:00:02.112Z,9.57
2023-04-19T04:05:07.058Z,9.58
2023-04-19T04:10:13.120Z,9.58
2023-04-19T04:15:19.537Z,9.55
2023-04-19T04:20:27.332Z,9.53
2023-04-19T04:25:39.267Z,9.51
2023-04-19T04:30:47.211Z,9.51
2023-04-19T04:35:51.414Z,9.43
2023-04-19T04:40:59.937Z,9.43
2023-04-19T04:46:04.319Z,9.42
2023-04-19T04:51:12.705Z,9.39
2023-04-19T04:56:19.838Z,9.41
2023-04-19T05:01:24.202Z,9.33
2023-04-19T05:06:28.097Z,9.29
2023-04-19T05:11:32.779Z,9.26
2023-04-19T05:16:35.976Z,9.15
2023-04-19T05:21:40.385Z,9.05
2023-04-19T05:26:46.850Z,9.04
2023-04-19T05:31:50.894Z,8.99
2023-04-19T05:37:14.304Z,8.99
2023-04-19T05:42:19.618Z,8.96
2023-04-19T05:47:22.740Z,8.99
2023-04-19T05:52:58.804Z,8.99
2023-04-19T05:58:03.350Z,8.99
2023-04-19T06:03:07.086Z,9.02
2023-04-19T06:08:10.580Z,9.00
2023-04-19T06:13:15.070Z,9.06
2023-04-19T06:18:19.345Z,9.07
2023-04-19T06:23:23.613Z,8.95
2023-04-19T06:28:28.140Z,9.09
2023-04-19T06:33:31.160Z,9.16
2023-04-19T06:38:34.144Z,9.17
2023-04-19T06:43:39.530Z,9.20
2023-04-19T06:48:43.094Z,9.28
2023-04-19T06:53:46.270Z,9.34
2023-04-19T06:58:51.204Z,9.43
2023-04-19T07:03:56.510Z,9.45
2023-04-19T07:09:00.442Z,9.56
2023-04-19T07:14:04.836Z,9.50
2023-04-19T07:19:07.805Z,9.64
2023-04-19T07:24:10.877Z,9.69
2023-04-19T07:29:15.358Z,9.64
2023-04-19T07:34:18.511Z,9.83
2023-04-19T07:39:21.680Z,9.91
2023-04-19T07:44:26.163Z,10.03
2023-04-19T07:49:33.854Z,10.25
2023-04-19T07:54:39.272Z,10.41
2023-04-19T07:59:43.979Z,10.71
2023-04-19T08:04:49.836Z,11.02
2023-04-19T08:09:53.061Z,11.31
2023-04-19T08:15:05.152Z,11.62
2023-04-19T08:20:13.089Z,12.00
2023-04-19T08:25:16.729Z,12.31
2023-04-19T08:30:21.722Z,12.37
2023-04-19T08:35:25.322Z,12.73
2023-04-19T08:40:28.626Z,13.08
2023-04-19T08:45:34.455Z,13.47
2023-04-19T08:50:48.755Z,13.62
2023-04-19T08:56:12.760Z,13.94
2023-04-19T09:01:33.764Z,14.24
2023-04-19T09:06:38.425Z,14.34
2023-04-19T09:11:41.880Z,14.52
2023-04-19T09:16:47.201Z,14.68
2023-04-19T09:21:52.026Z,14.71
2023-04-19T09:26:57.925Z,15.07
2023-04-19T09:32:02.669Z,15.20
2023-04-19T09:37:48.073Z,15.32
2023-04-19T09:48:07.788Z,15.42
2023-04-19T09:53:12.189Z,15.56
2023-04-19T09:58:15.643Z,15.72
2023-04-19T10:03:22.156Z,15.86
2023-04-19T10:08:28.346Z,16.09
2023-04-19T10:13:31.638Z,16.35
2023-04-19T10:18:36.652Z,16.63
2023-04-19T10:23:40.350Z,16.65
2023-04-19T10:28:43.836Z,16.63
2023-04-19T10:33:49.570Z,16.59
2023-04-19T10:38:53.762Z,16.56
2023-04-19T10:44:11.266Z,16.61
2023-04-19T10:49:16.259Z,16.72
2023-04-19T10:54:37.577Z,16.79
2023-04-19T10:59:43.322Z,16.99
2023-04-19T11:05:14.039Z,17.28
2023-04-19T11:10:29.720Z,17.39
2023-04-19T11:15:32.787Z,17.34
2023-04-19T11:20:37.093Z,17.52
2023-04-19T11:25:40.336Z,17.59
2023-04-19T11:30:44.468Z,17.56
2023-04-19T11:35:49.381Z,17.56
2023-04-19T11:41:00.571Z,17.62
2023-04-19T11:46:07.565Z,17.56
2023-04-19T11:51:12.907Z,17.61
2023-04-19T11:56:16.984Z,17.70
2023-04-19T12:01:22.372Z,17.79
2023-04-19T12:06:28.209Z,17.69
2023-04-19T12:11:44.483Z,17.91
2023-04-19T12:16:47.886Z,18.05
2023-04-19T12:21:52.528Z,18.02
2023-04-19T12:26:57.512Z,17.83
2023-04-19T12:32:01.883Z,17.96
2023-04-19T12:37:06.318Z,18.00
2023-04-19T12:42:09.385Z,18.03
2023-04-19T12:47:12.372Z,18.23
2023-04-19T12:52:16.879Z,18.09
2023-04-19T12:57:19.945Z,17.97
2023-04-19T13:02:23.131Z,17.92
2023-04-19T13:07:28.648Z,17.87
2023-04-19T13:12:31.642Z,18.07
2023-04-19T13:17:34.718Z,18.34
2023-04-19T13:22:39.302Z,18.24
2023-04-19T13:27:42.420Z,18.36
2023-04-19T13:32:45.610Z,18.51
2023-04-19T13:37:52.094Z,18.70
2023-04-19T13:42:57.217Z,18.29
2023-04-19T13:48:00.432Z,18.03
2023-04-19T13:53:04.904Z,18.33
2023-04-19T13:58:08.000Z,18.67
2023-04-19T14:03:11.386Z,18.82
2023-04-19T14:08:15.971Z,18.86
2023-04-19T14:13:21.962Z,18.90
2023-04-19T14:18:25.364Z,18.73
2023-04-19T14:23:29.807Z,18.60
2023-04-19T14:28:32.835Z,18.55
2023-04-19T14:33:36.399Z,18.38
2023-04-19T14:38:45.415Z,18.22
2023-04-19T14:43:48.859Z,18.36
2023-04-19T14:48:51.937Z,18.30
2023-04-19T14:53:56.564Z,18.20
2023-04-19T14:58:59.992Z,18.36
2023-04-19T15:04:03.310Z,18.34
2023-04-19T15:09:08.042Z,18.26
2023-04-19T15:14:11.198Z,18.32
2023-04-19T15:19:14.798Z,18.35
2023-04-19T15:24:19.798Z,18.17
2023-04-19T15:29:24.210Z,18.22
2023-04-19T15:34:27.511Z,18.39
2023-04-19T15:39:31.959Z,18.32
2023-04-19T15:44:35.050Z,18.54
2023-04-19T15:49:38.059Z,18.30
2023-04-19T15:54:42.422Z,18.21
2023-04-19T15:59:45.626Z,18.33
2023-04-19T16:04:49.410Z,17.98
2023-04-19T16:09:54.128Z,17.87
2023-04-19T16:14:57.400Z,17.95
2023-04-19T16:20:00.308Z,17.81
2023-04-19T16:25:07.214Z,17.64
2023-04-19T16:30:11.212Z,17.72
2023-04-19T16:35:14.358Z,17.87
2023-04-19T16:40:18.910Z,18.64
2023-04-19T16:45:23.424Z,18.12
2023-04-19T16:50:26.533Z,17.69
2023-04-19T16:55:34.009Z,17.45
2023-04-19T17:00:37.385Z,17.33
2023-04-19T17:05:40.604Z,17.17
2023-04-19T17:10:45.047Z,17.00
2023-04-19T17:15:48.605Z,16.89
2023-04-19T17:20:52.002Z,16.82
2023-04-19T17:25:56.381Z,16.67
2023-04-19T17:30:59.376Z,16.49
2023-04-19T17:36:02.357Z,16.17
2023-04-19T17:41:08.920Z,15.98
2023-04-19T17:46:13.200Z,15.57
2023-04-19T17:51:16.645Z,15.54
2023-04-19T17:56:21.462Z,15.47
2023-04-19T18:01:25.138Z,15.29
2023-04-19T18:06:28.347Z,15.05
2023-04-19T18:11:32.794Z,14.84
2023-04-19T18:16:35.870Z,14.70
2023-04-19T18:21:39.317Z,14.52
2023-04-19T18:26:44.568Z,14.24
2023-04-19T18:31:47.682Z,14.00
2023-04-19T18:36:56.049Z,13.78
2023-04-19T18:42:03.811Z,13.58
2023-04-19T18:47:07.416Z,13.37
2023-04-19T18:52:10.806Z,13.17
2023-04-19T19:02:21.764Z,12.74
2023-04-19T19:07:34.880Z,12.66
2023-04-19T19:12:40.012Z,12.55
2023-04-19T19:17:43.771Z,12.41
2023-04-19T19:22:46.997Z,12.23
2023-04-19T19:28:06.262Z,12.12
2023-04-19T19:33:10.006Z,11.97
2023-04-19T19:38:13.107Z,11.84
2023-04-19T19:43:17.993Z,11.65
2023-04-19T19:48:21.201Z,11.61
2023-04-19T19:53:25.955Z,11.50
2023-04-19T19:58:47.581Z,11.39
2023-04-19T20:03:55.668Z,11.19
2023-04-19T20:08:59.741Z,11.10
2023-04-19T20:14:04.566Z,10.98
2023-04-19T20:19:10.447Z,10.86
2023-04-19T20:24:14.042Z,10.70
2023-04-19T20:29:18.761Z,10.65
2023-04-19T20:34:22.532Z,10.57
2023-04-19T20:39:26.711Z,10.27
2023-04-19T20:44:31.557Z,10.30
2023-04-19T20:49:34.563Z,10.21
2023-04-19T20:54:39.049Z,10.01
2023-04-19T20:59:45.253Z,10.00
2023-04-19T21:04:50.332Z,9.91
2023-04-19T21:09:53.895Z,9.83
2023-04-19T21:14:58.475Z,9.65
2023-04-19T21:20:02.252Z,9.55
2023-04-19T21:25:05.964Z,9.40
2023-04-19T21:30:12.225Z,9.29
2023-04-19T21:35:15.243Z,9.21
2023-04-19T21:40:18.333Z,9.06
2023-04-19T21:45:23.003Z,8.95
2023-04-19T21:50:26.079Z,8.88
2023-04-19T21:55:29.406Z,8.78
2023-04-19T22:00:33.869Z,8.65
2023-04-19T22:05:37.575Z,8.64
2023-04-19T22:10:41.242Z,8.51
2023-04-19T22:15:46.095Z,8.50
2023-04-19T22:20:50.901Z,8.42
2023-04-19T22:25:53.946Z,8.37
2023-04-19T22:30:58.482Z,8.32
2023-04-19T22:36:01.764Z,8.19
2023-04-19T22:41:05.550Z,8.14
2023-04-19T22:46:10.518Z,8.07
2023-04-19T22:51:13.681Z,8.01
2023-04-19T22:56:18.016Z,7.94
2023-04-19T23:01:22.522Z,7.86
2023-04-19T23:06:25.845Z,7.83
2023-04-19T23:11:30.033Z,7.73
2023-04-19T23:16:34.628Z,7.53
2023-04-19T23:21:37.719Z,7.60
2023-04-19T23:26:41.211Z,7.60
2023-04-19T23:31:45.818Z,7.53
2023-04-19T23:36:48.951Z,7.50
2023-04-19T23:41:52.173Z,7.42
2023-04-19T23:46:56.719Z,7.35
2023-04-19T23:51:59.901Z,7.28
2023-04-19T23:57:03.007Z,7.28
